sensor_id;sensor_type;location;lat;lon;timestamp;P1;durP1;ratioP1;P2;durP2;ratioP2
13032;SDS011;6583;42.632;23.298;2023-04-03T00:02:02;1.20;;;1.10;;
13032;SDS011;6583;42.632;23.298;2023-04-03T00:04:29;2.83;;;1.50;;
13032;SDS011;6583;42.632;23.298;2023-04-03T00:06:56;1.23;;;1.13;;
13032;SDS011;6583;42.632;23.298;2023-04-03T00:09:22;1.53;;;1.20;;
13032;SDS011;6583;42.632;23.298;2023-04-03T00:11:49;2.07;;;1.33;;
13032;SDS011;6583;42.632;23.298;2023-04-03T00:14:17;1.67;;;1.03;;
13032;SDS011;6583;42.632;23.298;2023-04-03T00:16:44;1.30;;;1.20;;
13032;SDS011;6583;42.632;23.298;2023-04-03T00:19:10;1.80;;;1.57;;
13032;SDS011;6583;42.632;23.298;2023-04-03T00:21:38;1.40;;;1.30;;
13032;SDS011;6583;42.632;23.298;2023-04-03T00:24:05;1.83;;;1.20;;
13032;SDS011;6583;42.632;23.298;2023-04-03T00:26:32;1.33;;;1.23;;
13032;SDS011;6583;42.632;23.298;2023-04-03T00:28:58;1.67;;;1.20;;
13032;SDS011;6583;42.632;23.298;2023-04-03T00:31:26;1.10;;;1.10;;
13032;SDS011;6583;42.632;23.298;2023-04-03T00:33:53;1.17;;;1.10;;
13032;SDS011;6583;42.632;23.298;2023-04-03T00:36:20;1.23;;;1.13;;
13032;SDS011;6583;42.632;23.298;2023-04-03T00:38:46;1.40;;;1.30;;
13032;SDS011;6583;42.632;23.298;2023-04-03T00:41:13;1.10;;;1.00;;
13032;SDS011;6583;42.632;23.298;2023-04-03T00:43:40;1.73;;;1.03;;
13032;SDS011;6583;42.632;23.298;2023-04-03T00:46:06;3.20;;;1.43;;
13032;SDS011;6583;42.632;23.298;2023-04-03T00:48:36;1.30;;;1.20;;
13032;SDS011;6583;42.632;23.298;2023-04-03T00:51:06;1.37;;;1.27;;
13032;SDS011;6583;42.632;23.298;2023-04-03T00:53:37;1.30;;;1.20;;
13032;SDS011;6583;42.632;23.298;2023-04-03T00:56:06;1.30;;;1.20;;
13032;SDS011;6583;42.632;23.298;2023-04-03T00:58:37;1.80;;;1.23;;
13032;SDS011;6583;42.632;23.298;2023-04-03T01:01:10;1.17;;;1.07;;
13032;SDS011;6583;42.632;23.298;2023-04-03T01:03:42;1.20;;;1.10;;
13032;SDS011;6583;42.632;23.298;2023-04-03T01:06:09;1.47;;;1.27;;
13032;SDS011;6583;42.632;23.298;2023-04-03T01:08:35;1.30;;;1.20;;
13032;SDS011;6583;42.632;23.298;2023-04-03T01:11:02;1.20;;;1.10;;
13032;SDS011;6583;42.632;23.298;2023-04-03T01:13:31;3.10;;;2.30;;
13032;SDS011;6583;42.632;23.298;2023-04-03T01:16:00;4.63;;;2.73;;
13032;SDS011;6583;42.632;23.298;2023-04-03T01:18:27;6.63;;;4.03;;
13032;SDS011;6583;42.632;23.298;2023-04-03T01:21:09;10.73;;;5.23;;
13032;SDS011;6583;42.632;23.298;2023-04-03T01:23:58;8.43;;;4.70;;
13032;SDS011;6583;42.632;23.298;2023-04-03T01:26:35;4.80;;;3.10;;
13032;SDS011;6583;42.632;23.298;2023-04-03T01:29:02;3.70;;;2.30;;
13032;SDS011;6583;42.632;23.298;2023-04-03T01:31:30;2.43;;;1.80;;
13032;SDS011;6583;42.632;23.298;2023-04-03T01:34:00;1.73;;;1.50;;
13032;SDS011;6583;42.632;23.298;2023-04-03T01:36:28;1.30;;;1.20;;
13032;SDS011;6583;42.632;23.298;2023-04-03T01:38:56;1.80;;;1.07;;
13032;SDS011;6583;42.632;23.298;2023-04-03T01:41:24;1.47;;;1.37;;
13032;SDS011;6583;42.632;23.298;2023-04-03T01:43:51;1.40;;;1.30;;
13032;SDS011;6583;42.632;23.298;2023-04-03T01:46:18;1.30;;;1.20;;
13032;SDS011;6583;42.632;23.298;2023-04-03T01:48:46;2.27;;;1.53;;
13032;SDS011;6583;42.632;23.298;2023-04-03T01:51:15;1.10;;;1.00;;
13032;SDS011;6583;42.632;23.298;2023-04-03T01:53:42;1.60;;;1.20;;
13032;SDS011;6583;42.632;23.298;2023-04-03T01:56:08;1.30;;;1.20;;
13032;SDS011;6583;42.632;23.298;2023-04-03T01:58:35;1.67;;;1.10;;
13032;SDS011;6583;42.632;23.298;2023-04-03T02:01:02;1.50;;;1.40;;
13032;SDS011;6583;42.632;23.298;2023-04-03T02:03:29;1.50;;;1.40;;
13032;SDS011;6583;42.632;23.298;2023-04-03T02:05:56;1.20;;;1.10;;
13032;SDS011;6583;42.632;23.298;2023-04-03T02:08:24;1.20;;;1.10;;
13032;SDS011;6583;42.632;23.298;2023-04-03T02:10:51;1.40;;;1.30;;
13032;SDS011;6583;42.632;23.298;2023-04-03T02:13:18;1.30;;;1.20;;
13032;SDS011;6583;42.632;23.298;2023-04-03T02:15:44;1.30;;;1.20;;
13032;SDS011;6583;42.632;23.298;2023-04-03T02:18:12;1.20;;;1.10;;
13032;SDS011;6583;42.632;23.298;2023-04-03T02:20:38;1.20;;;1.10;;
13032;SDS011;6583;42.632;23.298;2023-04-03T02:23:05;1.47;;;1.30;;
13032;SDS011;6583;42.632;23.298;2023-04-03T02:25:34;1.20;;;1.10;;
13032;SDS011;6583;42.632;23.298;2023-04-03T02:28:00;1.70;;;1.30;;
13032;SDS011;6583;42.632;23.298;2023-04-03T02:30:27;1.30;;;1.20;;
13032;SDS011;6583;42.632;23.298;2023-04-03T02:32:54;1.27;;;1.13;;
13032;SDS011;6583;42.632;23.298;2023-04-03T02:35:21;1.20;;;1.10;;
13032;SDS011;6583;42.632;23.298;2023-04-03T02:37:47;1.40;;;1.30;;
13032;SDS011;6583;42.632;23.298;2023-04-03T02:40:14;1.00;;;1.00;;
13032;SDS011;6583;42.632;23.298;2023-04-03T02:42:42;1.13;;;1.07;;
13032;SDS011;6583;42.632;23.298;2023-04-03T02:45:09;1.30;;;1.20;;
13032;SDS011;6583;42.632;23.298;2023-04-03T02:47:36;3.37;;;1.43;;
13032;SDS011;6583;42.632;23.298;2023-04-03T02:50:03;1.20;;;1.10;;
13032;SDS011;6583;42.632;23.298;2023-04-03T02:52:30;1.33;;;1.10;;
13032;SDS011;6583;42.632;23.298;2023-04-03T02:54:56;3.13;;;1.20;;
13032;SDS011;6583;42.632;23.298;2023-04-03T02:57:23;1.13;;;0.97;;
13032;SDS011;6583;42.632;23.298;2023-04-03T02:59:51;1.13;;;1.10;;
13032;SDS011;6583;42.632;23.298;2023-04-03T03:02:18;1.20;;;1.10;;
13032;SDS011;6583;42.632;23.298;2023-04-03T03:04:44;1.40;;;1.30;;
13032;SDS011;6583;42.632;23.298;2023-04-03T03:07:11;1.47;;;1.30;;
13032;SDS011;6583;42.632;23.298;2023-04-03T03:09:38;3.60;;;2.40;;
13032;SDS011;6583;42.632;23.298;2023-04-03T03:12:05;2.57;;;1.70;;
13032;SDS011;6583;42.632;23.298;2023-04-03T03:14:31;1.97;;;1.70;;
13032;SDS011;6583;42.632;23.298;2023-04-03T03:16:59;1.57;;;1.47;;
13032;SDS011;6583;42.632;23.298;2023-04-03T03:19:26;1.67;;;1.50;;
13032;SDS011;6583;42.632;23.298;2023-04-03T03:21:53;1.40;;;1.30;;
13032;SDS011;6583;42.632;23.298;2023-04-03T03:24:19;1.93;;;1.20;;
13032;SDS011;6583;42.632;23.298;2023-04-03T03:26:46;1.67;;;1.57;;
13032;SDS011;6583;42.632;23.298;2023-04-03T03:29:12;1.40;;;1.30;;
13032;SDS011;6583;42.632;23.298;2023-04-03T03:31:39;2.27;;;1.37;;
13032;SDS011;6583;42.632;23.298;2023-04-03T03:34:07;1.70;;;1.60;;
13032;SDS011;6583;42.632;23.298;2023-04-03T03:36:34;1.63;;;1.50;;
13032;SDS011;6583;42.632;23.298;2023-04-03T03:39:01;2.40;;;2.00;;
13032;SDS011;6583;42.632;23.298;2023-04-03T03:41:28;3.17;;;2.03;;
13032;SDS011;6583;42.632;23.298;2023-04-03T03:43:54;1.73;;;1.50;;
13032;SDS011;6583;42.632;23.298;2023-04-03T03:46:21;1.60;;;1.40;;
13032;SDS011;6583;42.632;23.298;2023-04-03T03:48:48;1.50;;;1.40;;
13032;SDS011;6583;42.632;23.298;2023-04-03T03:51:16;2.20;;;1.80;;
13032;SDS011;6583;42.632;23.298;2023-04-03T03:53:42;2.53;;;1.83;;
13032;SDS011;6583;42.632;23.298;2023-04-03T03:56:09;2.40;;;1.50;;
13032;SDS011;6583;42.632;23.298;2023-04-03T03:58:36;1.80;;;1.70;;
13032;SDS011;6583;42.632;23.298;2023-04-03T04:01:03;2.63;;;1.70;;
13032;SDS011;6583;42.632;23.298;2023-04-03T04:03:31;1.70;;;1.60;;
13032;SDS011;6583;42.632;23.298;2023-04-03T04:05:57;1.60;;;1.50;;
13032;SDS011;6583;42.632;23.298;2023-04-03T04:08:26;1.57;;;1.47;;
13032;SDS011;6583;42.632;23.298;2023-04-03T04:10:52;2.03;;;1.83;;
13032;SDS011;6583;42.632;23.298;2023-04-03T04:13:19;2.93;;;2.17;;
13032;SDS011;6583;42.632;23.298;2023-04-03T04:15:46;5.53;;;2.20;;
13032;SDS011;6583;42.632;23.298;2023-04-03T04:18:13;5.40;;;1.73;;
13032;SDS011;6583;42.632;23.298;2023-04-03T04:20:40;1.77;;;1.43;;
13032;SDS011;6583;42.632;23.298;2023-04-03T04:23:06;1.70;;;1.60;;
13032;SDS011;6583;42.632;23.298;2023-04-03T04:25:34;2.07;;;1.60;;
13032;SDS011;6583;42.632;23.298;2023-04-03T04:28:01;2.63;;;1.50;;
13032;SDS011;6583;42.632;23.298;2023-04-03T04:30:28;1.60;;;1.50;;
13032;SDS011;6583;42.632;23.298;2023-04-03T04:32:54;2.63;;;1.40;;
13032;SDS011;6583;42.632;23.298;2023-04-03T04:35:21;3.47;;;1.90;;
13032;SDS011;6583;42.632;23.298;2023-04-03T04:37:48;3.33;;;1.53;;
13032;SDS011;6583;42.632;23.298;2023-04-03T04:40:15;1.87;;;1.60;;
13032;SDS011;6583;42.632;23.298;2023-04-03T04:42:43;2.00;;;1.23;;
13032;SDS011;6583;42.632;23.298;2023-04-03T04:45:10;2.53;;;1.40;;
13032;SDS011;6583;42.632;23.298;2023-04-03T04:47:37;2.60;;;1.30;;
13032;SDS011;6583;42.632;23.298;2023-04-03T04:50:04;3.60;;;1.50;;
13032;SDS011;6583;42.632;23.298;2023-04-03T04:52:31;1.50;;;1.40;;
13032;SDS011;6583;42.632;23.298;2023-04-03T04:54:58;2.03;;;1.37;;
13032;SDS011;6583;42.632;23.298;2023-04-03T04:57:24;1.60;;;1.50;;
13032;SDS011;6583;42.632;23.298;2023-04-03T04:59:52;1.37;;;1.30;;
13032;SDS011;6583;42.632;23.298;2023-04-03T05:02:19;2.27;;;1.50;;
13032;SDS011;6583;42.632;23.298;2023-04-03T05:04:46;2.03;;;1.43;;
13032;SDS011;6583;42.632;23.298;2023-04-03T05:07:15;2.53;;;1.60;;
13032;SDS011;6583;42.632;23.298;2023-04-03T05:09:41;3.20;;;1.80;;
13032;SDS011;6583;42.632;23.298;2023-04-03T05:12:08;3.10;;;2.00;;
13032;SDS011;6583;42.632;23.298;2023-04-03T05:14:35;2.70;;;2.50;;
13032;SDS011;6583;42.632;23.298;2023-04-03T05:17:03;1.97;;;1.87;;
13032;SDS011;6583;42.632;23.298;2023-04-03T05:19:29;2.80;;;2.40;;
13032;SDS011;6583;42.632;23.298;2023-04-03T05:21:56;2.93;;;2.30;;
13032;SDS011;6583;42.632;23.298;2023-04-03T05:24:23;2.87;;;2.47;;
13032;SDS011;6583;42.632;23.298;2023-04-03T05:26:49;4.63;;;2.50;;
13032;SDS011;6583;42.632;23.298;2023-04-03T05:29:16;2.40;;;2.20;;
13032;SDS011;6583;42.632;23.298;2023-04-03T05:31:43;3.97;;;2.00;;
13032;SDS011;6583;42.632;23.298;2023-04-03T05:34:11;3.17;;;2.10;;
13032;SDS011;6583;42.632;23.298;2023-04-03T05:36:37;2.30;;;2.10;;
13032;SDS011;6583;42.632;23.298;2023-04-03T05:39:04;3.37;;;2.00;;
13032;SDS011;6583;42.632;23.298;2023-04-03T05:41:31;4.07;;;2.60;;
13032;SDS011;6583;42.632;23.298;2023-04-03T05:43:57;2.80;;;2.60;;
13032;SDS011;6583;42.632;23.298;2023-04-03T05:46:24;4.40;;;2.83;;
13032;SDS011;6583;42.632;23.298;2023-04-03T05:48:51;7.63;;;3.20;;
13032;SDS011;6583;42.632;23.298;2023-04-03T05:51:20;6.93;;;3.53;;
13032;SDS011;6583;42.632;23.298;2023-04-03T05:53:51;5.70;;;4.70;;
13032;SDS011;6583;42.632;23.298;2023-04-03T05:56:27;7.93;;;4.63;;
13032;SDS011;6583;42.632;23.298;2023-04-03T05:58:53;6.70;;;5.17;;
13032;SDS011;6583;42.632;23.298;2023-04-03T06:01:20;7.10;;;4.57;;
13032;SDS011;6583;42.632;23.298;2023-04-03T06:03:46;8.90;;;4.40;;
13032;SDS011;6583;42.632;23.298;2023-04-03T06:06:13;6.70;;;4.10;;
13032;SDS011;6583;42.632;23.298;2023-04-03T06:08:42;5.73;;;4.43;;
13032;SDS011;6583;42.632;23.298;2023-04-03T06:11:09;5.57;;;3.83;;
13032;SDS011;6583;42.632;23.298;2023-04-03T06:13:36;4.13;;;3.50;;
13032;SDS011;6583;42.632;23.298;2023-04-03T06:16:04;4.90;;;4.10;;
13032;SDS011;6583;42.632;23.298;2023-04-03T06:18:31;7.00;;;4.20;;
13032;SDS011;6583;42.632;23.298;2023-04-03T06:20:58;6.23;;;4.47;;
13032;SDS011;6583;42.632;23.298;2023-04-03T06:23:25;6.53;;;4.20;;
13032;SDS011;6583;42.632;23.298;2023-04-03T06:25:53;4.50;;;3.70;;
13032;SDS011;6583;42.632;23.298;2023-04-03T06:28:20;6.77;;;4.40;;
13032;SDS011;6583;42.632;23.298;2023-04-03T06:30:47;8.50;;;5.10;;
13032;SDS011;6583;42.632;23.298;2023-04-03T06:33:14;10.97;;;6.53;;
13032;SDS011;6583;42.632;23.298;2023-04-03T06:35:40;14.03;;;6.90;;
13032;SDS011;6583;42.632;23.298;2023-04-03T06:38:07;8.10;;;6.63;;
13032;SDS011;6583;42.632;23.298;2023-04-03T06:40:34;11.30;;;7.87;;
13032;SDS011;6583;42.632;23.298;2023-04-03T06:43:03;13.77;;;8.33;;
13032;SDS011;6583;42.632;23.298;2023-04-03T06:45:30;12.40;;;8.27;;
13032;SDS011;6583;42.632;23.298;2023-04-03T06:47:57;13.30;;;9.13;;
13032;SDS011;6583;42.632;23.298;2023-04-03T06:50:24;16.50;;;9.77;;
13032;SDS011;6583;42.632;23.298;2023-04-03T06:52:51;15.53;;;11.00;;
13032;SDS011;6583;42.632;23.298;2023-04-03T06:55:18;15.80;;;10.80;;
13032;SDS011;6583;42.632;23.298;2023-04-03T06:57:44;14.73;;;10.03;;
13032;SDS011;6583;42.632;23.298;2023-04-03T07:00:13;15.53;;;10.23;;
13032;SDS011;6583;42.632;23.298;2023-04-03T07:02:41;16.00;;;10.90;;
13032;SDS011;6583;42.632;23.298;2023-04-03T07:05:08;20.07;;;11.00;;
13032;SDS011;6583;42.632;23.298;2023-04-03T07:07:35;17.47;;;11.27;;
13032;SDS011;6583;42.632;23.298;2023-04-03T07:10:03;16.33;;;10.87;;
13032;SDS011;6583;42.632;23.298;2023-04-03T07:12:30;13.20;;;10.20;;
13032;SDS011;6583;42.632;23.298;2023-04-03T07:14:57;15.80;;;10.73;;
13032;SDS011;6583;42.632;23.298;2023-04-03T07:17:25;16.07;;;10.97;;
13032;SDS011;6583;42.632;23.298;2023-04-03T07:19:51;19.20;;;11.63;;
13032;SDS011;6583;42.632;23.298;2023-04-03T07:22:18;15.83;;;11.00;;
13032;SDS011;6583;42.632;23.298;2023-04-03T07:24:45;16.27;;;11.03;;
13032;SDS011;6583;42.632;23.298;2023-04-03T07:27:12;16.23;;;10.47;;
13032;SDS011;6583;42.632;23.298;2023-04-03T07:29:38;16.17;;;11.67;;
13032;SDS011;6583;42.632;23.298;2023-04-03T07:32:05;18.77;;;11.20;;
13032;SDS011;6583;42.632;23.298;2023-04-03T07:34:34;16.50;;;11.40;;
13032;SDS011;6583;42.632;23.298;2023-04-03T07:37:00;14.30;;;11.27;;
13032;SDS011;6583;42.632;23.298;2023-04-03T07:39:27;15.07;;;9.80;;
13032;SDS011;6583;42.632;23.298;2023-04-03T07:41:54;13.73;;;10.30;;
13032;SDS011;6583;42.632;23.298;2023-04-03T07:44:21;14.43;;;10.73;;
13032;SDS011;6583;42.632;23.298;2023-04-03T07:46:48;12.63;;;10.37;;
13032;SDS011;6583;42.632;23.298;2023-04-03T07:49:17;13.90;;;10.63;;
13032;SDS011;6583;42.632;23.298;2023-04-03T07:51:45;12.23;;;10.67;;
13032;SDS011;6583;42.632;23.298;2023-04-03T07:54:13;13.50;;;10.77;;
13032;SDS011;6583;42.632;23.298;2023-04-03T07:56:40;12.43;;;10.77;;
13032;SDS011;6583;42.632;23.298;2023-04-03T07:59:08;12.20;;;10.10;;
13032;SDS011;6583;42.632;23.298;2023-04-03T08:01:35;14.47;;;11.17;;
13032;SDS011;6583;42.632;23.298;2023-04-03T08:04:02;14.70;;;11.97;;
13032;SDS011;6583;42.632;23.298;2023-04-03T08:06:30;14.43;;;11.60;;
13032;SDS011;6583;42.632;23.298;2023-04-03T08:09:00;14.87;;;11.20;;
13032;SDS011;6583;42.632;23.298;2023-04-03T08:11:26;16.80;;;12.20;;
13032;SDS011;6583;42.632;23.298;2023-04-03T08:13:53;15.23;;;11.43;;
13032;SDS011;6583;42.632;23.298;2023-04-03T08:16:20;16.73;;;12.43;;
13032;SDS011;6583;42.632;23.298;2023-04-03T08:18:50;16.47;;;12.90;;
13032;SDS011;6583;42.632;23.298;2023-04-03T08:21:17;16.53;;;13.13;;
13032;SDS011;6583;42.632;23.298;2023-04-03T08:23:43;19.87;;;14.30;;
13032;SDS011;6583;42.632;23.298;2023-04-03T08:26:14;17.83;;;13.67;;
13032;SDS011;6583;42.632;23.298;2023-04-03T08:28:42;20.40;;;14.00;;
13032;SDS011;6583;42.632;23.298;2023-04-03T08:31:09;17.97;;;13.70;;
13032;SDS011;6583;42.632;23.298;2023-04-03T08:33:38;15.57;;;12.93;;
13032;SDS011;6583;42.632;23.298;2023-04-03T08:36:06;16.40;;;13.00;;
13032;SDS011;6583;42.632;23.298;2023-04-03T08:38:41;16.47;;;13.27;;
13032;SDS011;6583;42.632;23.298;2023-04-03T08:41:13;15.87;;;12.83;;
13032;SDS011;6583;42.632;23.298;2023-04-03T08:43:46;15.47;;;12.17;;
13032;SDS011;6583;42.632;23.298;2023-04-03T08:46:24;18.37;;;13.50;;
13032;SDS011;6583;42.632;23.298;2023-04-03T08:48:58;16.83;;;12.03;;
13032;SDS011;6583;42.632;23.298;2023-04-03T08:51:26;13.67;;;11.63;;
13032;SDS011;6583;42.632;23.298;2023-04-03T08:53:54;16.33;;;12.70;;
13032;SDS011;6583;42.632;23.298;2023-04-03T08:56:26;14.23;;;11.40;;
13032;SDS011;6583;42.632;23.298;2023-04-03T08:58:55;14.50;;;12.23;;
13032;SDS011;6583;42.632;23.298;2023-04-03T09:01:25;16.83;;;13.50;;
13032;SDS011;6583;42.632;23.298;2023-04-03T09:03:56;20.87;;;12.70;;
13032;SDS011;6583;42.632;23.298;2023-04-03T09:06:23;18.03;;;11.97;;
13032;SDS011;6583;42.632;23.298;2023-04-03T09:08:56;14.00;;;12.07;;
13032;SDS011;6583;42.632;23.298;2023-04-03T09:11:39;14.33;;;11.27;;
13032;SDS011;6583;42.632;23.298;2023-04-03T09:14:13;15.97;;;9.90;;
13032;SDS011;6583;42.632;23.298;2023-04-03T09:16:48;11.30;;;7.20;;
13032;SDS011;6583;42.632;23.298;2023-04-03T09:19:21;7.87;;;5.23;;
13032;SDS011;6583;42.632;23.298;2023-04-03T09:21:59;4.13;;;3.73;;
13032;SDS011;6583;42.632;23.298;2023-04-03T09:24:29;3.73;;;3.33;;
13032;SDS011;6583;42.632;23.298;2023-04-03T09:27:01;5.43;;;2.90;;
13032;SDS011;6583;42.632;23.298;2023-04-03T09:29:33;2.73;;;2.53;;
13032;SDS011;6583;42.632;23.298;2023-04-03T09:32:11;3.50;;;2.67;;
13032;SDS011;6583;42.632;23.298;2023-04-03T09:34:45;2.00;;;1.57;;
13032;SDS011;6583;42.632;23.298;2023-04-03T09:37:33;2.57;;;2.20;;
13032;SDS011;6583;42.632;23.298;2023-04-03T09:40:01;3.90;;;2.30;;
13032;SDS011;6583;42.632;23.298;2023-04-03T09:42:30;2.70;;;1.70;;
13032;SDS011;6583;42.632;23.298;2023-04-03T09:44:59;1.50;;;1.40;;
13032;SDS011;6583;42.632;23.298;2023-04-03T09:47:28;2.30;;;1.30;;
13032;SDS011;6583;42.632;23.298;2023-04-03T09:52:47;1.60;;;1.50;;
13032;SDS011;6583;42.632;23.298;2023-04-03T09:55:17;1.70;;;1.60;;
13032;SDS011;6583;42.632;23.298;2023-04-03T09:57:47;1.70;;;1.50;;
13032;SDS011;6583;42.632;23.298;2023-04-03T10:00:23;1.60;;;1.50;;
13032;SDS011;6583;42.632;23.298;2023-04-03T10:02:53;4.10;;;2.70;;
13032;SDS011;6583;42.632;23.298;2023-04-03T10:05:28;5.77;;;3.57;;
13032;SDS011;6583;42.632;23.298;2023-04-03T10:08:09;4.97;;;3.17;;
13032;SDS011;6583;42.632;23.298;2023-04-03T10:10:46;4.20;;;3.23;;
13032;SDS011;6583;42.632;23.298;2023-04-03T10:13:16;3.60;;;2.80;;
13032;SDS011;6583;42.632;23.298;2023-04-03T10:15:46;3.47;;;2.67;;
13032;SDS011;6583;42.632;23.298;2023-04-03T10:18:22;3.10;;;2.30;;
13032;SDS011;6583;42.632;23.298;2023-04-03T10:20:58;3.47;;;2.80;;
13032;SDS011;6583;42.632;23.298;2023-04-03T10:23:31;6.03;;;2.60;;
13032;SDS011;6583;42.632;23.298;2023-04-03T10:26:07;3.43;;;2.20;;
13032;SDS011;6583;42.632;23.298;2023-04-03T10:28:40;2.63;;;2.40;;
13032;SDS011;6583;42.632;23.298;2023-04-03T10:31:14;2.80;;;2.30;;
13032;SDS011;6583;42.632;23.298;2023-04-03T10:33:51;2.73;;;2.40;;
13032;SDS011;6583;42.632;23.298;2023-04-03T10:36:28;3.40;;;2.23;;
13032;SDS011;6583;42.632;23.298;2023-04-03T10:39:02;3.07;;;2.50;;
13032;SDS011;6583;42.632;23.298;2023-04-03T10:41:43;3.40;;;2.40;;
13032;SDS011;6583;42.632;23.298;2023-04-03T10:44:24;2.53;;;2.33;;
13032;SDS011;6583;42.632;23.298;2023-04-03T10:46:59;2.60;;;2.40;;
13032;SDS011;6583;42.632;23.298;2023-04-03T10:49:35;2.83;;;2.00;;
13032;SDS011;6583;42.632;23.298;2023-04-03T10:52:14;2.70;;;2.30;;
13032;SDS011;6583;42.632;23.298;2023-04-03T10:54:49;4.00;;;2.50;;
13032;SDS011;6583;42.632;23.298;2023-04-03T10:57:27;2.97;;;2.20;;
13032;SDS011;6583;42.632;23.298;2023-04-03T10:59:58;2.93;;;2.23;;
13032;SDS011;6583;42.632;23.298;2023-04-03T11:02:28;3.60;;;2.67;;
13032;SDS011;6583;42.632;23.298;2023-04-03T11:04:59;2.27;;;2.17;;
13032;SDS011;6583;42.632;23.298;2023-04-03T11:07:28;2.50;;;2.30;;
13032;SDS011;6583;42.632;23.298;2023-04-03T11:10:00;3.23;;;2.30;;
13032;SDS011;6583;42.632;23.298;2023-04-03T11:12:36;2.67;;;2.47;;
13032;SDS011;6583;42.632;23.298;2023-04-03T11:15:12;2.90;;;2.70;;
13032;SDS011;6583;42.632;23.298;2023-04-03T11:17:41;3.40;;;3.10;;
13032;SDS011;6583;42.632;23.298;2023-04-03T11:20:16;2.83;;;2.60;;
13032;SDS011;6583;42.632;23.298;2023-04-03T11:22:45;3.33;;;2.83;;
13032;SDS011;6583;42.632;23.298;2023-04-03T11:25:18;4.40;;;4.00;;
13032;SDS011;6583;42.632;23.298;2023-04-03T11:27:49;5.80;;;4.97;;
13032;SDS011;6583;42.632;23.298;2023-04-03T11:30:23;7.13;;;5.07;;
13032;SDS011;6583;42.632;23.298;2023-04-03T11:32:58;8.17;;;5.57;;
13032;SDS011;6583;42.632;23.298;2023-04-03T11:35:35;5.47;;;4.97;;
13032;SDS011;6583;42.632;23.298;2023-04-03T11:38:03;6.10;;;5.57;;
13032;SDS011;6583;42.632;23.298;2023-04-03T11:40:32;6.17;;;5.53;;
13032;SDS011;6583;42.632;23.298;2023-04-03T11:43:06;6.77;;;6.17;;
13032;SDS011;6583;42.632;23.298;2023-04-03T11:45:54;6.70;;;6.00;;
13032;SDS011;6583;42.632;23.298;2023-04-03T12:03:06;13.10;;;10.73;;
13032;SDS011;6583;42.632;23.298;2023-04-03T12:05:58;11.97;;;10.53;;
13032;SDS011;6583;42.632;23.298;2023-04-03T12:09:04;11.40;;;10.20;;
13032;SDS011;6583;42.632;23.298;2023-04-03T12:11:52;12.03;;;10.33;;
13032;SDS011;6583;42.632;23.298;2023-04-03T12:14:21;11.60;;;10.37;;
13032;SDS011;6583;42.632;23.298;2023-04-03T12:16:50;11.63;;;10.40;;
13032;SDS011;6583;42.632;23.298;2023-04-03T12:19:34;15.50;;;12.10;;
13032;SDS011;6583;42.632;23.298;2023-04-03T12:22:07;14.97;;;11.40;;
13032;SDS011;6583;42.632;23.298;2023-04-03T12:24:38;13.60;;;10.40;;
13032;SDS011;6583;42.632;23.298;2023-04-03T12:27:24;10.67;;;8.60;;
13032;SDS011;6583;42.632;23.298;2023-04-03T12:29:55;5.80;;;5.30;;
13032;SDS011;6583;42.632;23.298;2023-04-03T12:32:32;4.80;;;4.40;;
13032;SDS011;6583;42.632;23.298;2023-04-03T12:35:13;4.53;;;4.10;;
13032;SDS011;6583;42.632;23.298;2023-04-03T12:40:41;3.43;;;3.13;;
13032;SDS011;6583;42.632;23.298;2023-04-03T12:43:17;3.60;;;3.13;;
13032;SDS011;6583;42.632;23.298;2023-04-03T12:45:56;3.20;;;3.00;;
13032;SDS011;6583;42.632;23.298;2023-04-03T12:48:28;3.83;;;3.40;;
13032;SDS011;6583;42.632;23.298;2023-04-03T12:50:58;4.07;;;3.67;;
13032;SDS011;6583;42.632;23.298;2023-04-03T12:53:26;4.60;;;4.13;;
13032;SDS011;6583;42.632;23.298;2023-04-03T12:55:55;4.67;;;4.33;;
13032;SDS011;6583;42.632;23.298;2023-04-03T12:58:23;5.73;;;5.00;;
13032;SDS011;6583;42.632;23.298;2023-04-03T13:03:37;4.23;;;3.80;;
13032;SDS011;6583;42.632;23.298;2023-04-03T13:06:10;7.17;;;4.30;;
13032;SDS011;6583;42.632;23.298;2023-04-03T13:08:48;4.10;;;3.80;;
13032;SDS011;6583;42.632;23.298;2023-04-03T13:11:16;3.57;;;3.27;;
13032;SDS011;6583;42.632;23.298;2023-04-03T13:13:58;2.90;;;2.57;;
13032;SDS011;6583;42.632;23.298;2023-04-03T13:16:27;3.80;;;3.50;;
13032;SDS011;6583;42.632;23.298;2023-04-03T13:18:55;4.07;;;3.20;;
13032;SDS011;6583;42.632;23.298;2023-04-03T13:21:23;4.50;;;3.70;;
13032;SDS011;6583;42.632;23.298;2023-04-03T13:23:53;3.47;;;3.17;;
13032;SDS011;6583;42.632;23.298;2023-04-03T13:26:23;3.50;;;3.20;;
13032;SDS011;6583;42.632;23.298;2023-04-03T13:28:52;4.00;;;3.60;;
13032;SDS011;6583;42.632;23.298;2023-04-03T13:31:25;3.87;;;3.50;;
13032;SDS011;6583;42.632;23.298;2023-04-03T13:33:55;4.10;;;3.60;;
13032;SDS011;6583;42.632;23.298;2023-04-03T13:36:26;3.27;;;3.03;;
13032;SDS011;6583;42.632;23.298;2023-04-03T13:39:00;3.63;;;3.30;;
13032;SDS011;6583;42.632;23.298;2023-04-03T13:41:30;4.40;;;4.00;;
13032;SDS011;6583;42.632;23.298;2023-04-03T13:46:57;3.47;;;3.17;;
13032;SDS011;6583;42.632;23.298;2023-04-03T13:49:30;4.60;;;3.30;;
13032;SDS011;6583;42.632;23.298;2023-04-03T13:52:01;4.03;;;2.87;;
13032;SDS011;6583;42.632;23.298;2023-04-03T13:54:45;3.37;;;2.53;;
13032;SDS011;6583;42.632;23.298;2023-04-03T13:57:17;2.40;;;2.20;;
13032;SDS011;6583;42.632;23.298;2023-04-03T13:59:44;2.50;;;2.30;;
13032;SDS011;6583;42.632;23.298;2023-04-03T14:02:14;2.90;;;2.70;;
13032;SDS011;6583;42.632;23.298;2023-04-03T14:04:52;3.33;;;3.03;;
13032;SDS011;6583;42.632;23.298;2023-04-03T14:07:24;2.93;;;2.60;;
13032;SDS011;6583;42.632;23.298;2023-04-03T14:09:52;2.70;;;2.50;;
13032;SDS011;6583;42.632;23.298;2023-04-03T14:12:21;3.20;;;3.00;;
13032;SDS011;6583;42.632;23.298;2023-04-03T14:14:53;3.03;;;2.83;;
13032;SDS011;6583;42.632;23.298;2023-04-03T14:17:21;2.70;;;2.50;;
13032;SDS011;6583;42.632;23.298;2023-04-03T14:19:50;2.87;;;2.67;;
13032;SDS011;6583;42.632;23.298;2023-04-03T14:22:18;3.30;;;2.90;;
13032;SDS011;6583;42.632;23.298;2023-04-03T14:24:50;2.80;;;2.60;;
13032;SDS011;6583;42.632;23.298;2023-04-03T14:27:20;3.50;;;3.20;;
13032;SDS011;6583;42.632;23.298;2023-04-03T14:29:49;5.33;;;4.20;;
13032;SDS011;6583;42.632;23.298;2023-04-03T14:32:18;6.00;;;5.40;;
13032;SDS011;6583;42.632;23.298;2023-04-03T14:34:46;4.50;;;4.10;;
13032;SDS011;6583;42.632;23.298;2023-04-03T14:37:15;4.33;;;3.93;;
13032;SDS011;6583;42.632;23.298;2023-04-03T14:39:43;3.43;;;3.23;;
13032;SDS011;6583;42.632;23.298;2023-04-03T14:42:13;3.03;;;2.70;;
13032;SDS011;6583;42.632;23.298;2023-04-03T14:44:41;3.87;;;2.67;;
13032;SDS011;6583;42.632;23.298;2023-04-03T14:47:09;2.97;;;2.67;;
13032;SDS011;6583;42.632;23.298;2023-04-03T14:49:37;3.47;;;3.20;;
13032;SDS011;6583;42.632;23.298;2023-04-03T14:52:04;2.90;;;2.63;;
13032;SDS011;6583;42.632;23.298;2023-04-03T14:54:31;3.70;;;3.27;;
13032;SDS011;6583;42.632;23.298;2023-04-03T14:56:59;2.43;;;2.23;;
13032;SDS011;6583;42.632;23.298;2023-04-03T14:59:28;2.63;;;2.20;;
13032;SDS011;6583;42.632;23.298;2023-04-03T15:01:57;2.53;;;2.33;;
13032;SDS011;6583;42.632;23.298;2023-04-03T15:04:23;2.57;;;2.37;;
13032;SDS011;6583;42.632;23.298;2023-04-03T15:06:50;2.40;;;2.20;;
13032;SDS011;6583;42.632;23.298;2023-04-03T15:09:19;2.70;;;2.50;;
13032;SDS011;6583;42.632;23.298;2023-04-03T15:11:50;2.83;;;2.53;;
13032;SDS011;6583;42.632;23.298;2023-04-03T15:14:17;2.70;;;2.50;;
13032;SDS011;6583;42.632;23.298;2023-04-03T15:16:46;2.30;;;2.10;;
13032;SDS011;6583;42.632;23.298;2023-04-03T15:19:12;3.83;;;2.53;;
13032;SDS011;6583;42.632;23.298;2023-04-03T15:21:39;2.93;;;2.30;;
13032;SDS011;6583;42.632;23.298;2023-04-03T15:24:06;2.53;;;2.30;;